Weather reports worldwide

Advertisment
Wick Airport, United Kingdom (2003075): temperature & dewpoint: 18.04.2019 08:00:00 - 24.04.2019 08:00:00 (BST)Wick Airport, United Kingdom (2003075): wind speed: 18.04.2019 08:00:00 - 24.04.2019 08:00:00 (BST)Wick Airport, United Kingdom (2003075): wind direction: 18.04.2019 08:00:00 - 24.04.2019 08:00:00 (BST)Wick Airport, United Kingdom (2003075): visibility: 18.04.2019 08:00:00 - 24.04.2019 08:00:00 (BST)
Date & Time tt [°C] td [°C] ff [km/h] ff [kn] dd vv [km]
24.04.2019 08:00:00 9,0 7,0 29 16 SE 10
24.04.2019 07:00:00 9,0 7,0 31 17 SE 10
24.04.2019 06:00:00 8,0 6,0 34 18 SE 10
24.04.2019 05:00:00 8,0 6,0 35 19 SE 10
24.04.2019 04:00:00 8,0 6,0 41 22 SE 10
24.04.2019 03:00:00 8,0 6,0 28 15 SE 9
24.04.2019 02:00:00 8,0 6,0 28 15 SSE 10
24.04.2019 01:00:00 8,0 6,0 22 12 SSE 10
24.04.2019 00:00:00 8,0 6,0 24 13 SSE 10
23.04.2019 23:00:00 8,0 7,0 28 15 SSE 10
23.04.2019 22:00:00 8,0 7,0 31 17 SSE 10
23.04.2019 21:00:00 8,0 7,0 28 15 SSE 10
23.04.2019 20:00:00 9,0 7,0 34 18 SSE 8
23.04.2019 19:00:00 9,0 7,0 34 18 SSE 7
23.04.2019 18:00:00 9,0 7,0 35 19 SE 7
23.04.2019 17:00:00 9,0 7,0 35 19 SE 7
23.04.2019 16:00:00 9,0 8,0 44 24 SE 8
23.04.2019 15:00:00 10,0 8,0 42 23 SE 10
23.04.2019 14:00:00 11,0 8,0 41 22 SE 10
23.04.2019 13:00:00 11,0 8,0 35 19 SSE 9
23.04.2019 12:00:00 11,0 8,0 35 19 SSE 8
23.04.2019 11:00:00 10,0 8,0 31 17 SSE 8
23.04.2019 10:00:00 10,0 8,0 21 11 SSE 7
23.04.2019 09:00:00 9,0 8,0 28 15 SSE 7
23.04.2019 08:00:00 9,0 8,0 28 15 SSE 9
23.04.2019 07:00:00 8,0 7,0 26 14 SSE 10
23.04.2019 06:00:00 8,0 7,0 24 13 SSE 10
23.04.2019 05:00:00 8,0 7,0 18 10 SSE 10
23.04.2019 04:00:00 8,0 7,0 24 13 SE 10
23.04.2019 03:00:00 8,0 7,0 11 6 S 10
23.04.2019 02:00:00 8,0 7,0 5 3 - 10
23.04.2019 01:00:00 8,0 7,0 29 16 SSE 10
23.04.2019 00:00:00 8,0 7,0 26 14 SSE 10
22.04.2019 23:00:00 8,0 7,0 35 19 SSE 10
22.04.2019 22:00:00 8,0 7,0 35 19 SSE 10
22.04.2019 21:00:00 8,0 7,0 28 15 SSE 10
22.04.2019 20:00:00 9,0 7,0 29 16 SE 10
22.04.2019 19:00:00 10,0 6,0 29 16 SSE 10
22.04.2019 18:00:00 12,0 7,0 34 18 SSE 10
22.04.2019 17:00:00 12,0 8,0 29 16 SE 9
22.04.2019 16:00:00 11,0 8,0 35 19 SE 9
22.04.2019 15:00:00 12,0 8,0 28 15 SE 10
22.04.2019 14:00:00 12,0 9,0 29 16 SE 10
22.04.2019 13:00:00 13,0 9,0 26 14 SE 10
22.04.2019 12:00:00 13,0 8,0 13 7 SSE 10
22.04.2019 11:00:00 14,0 7,0 16 9 S 10
22.04.2019 10:00:00 14,0 7,0 16 9 S 10
22.04.2019 09:00:00 12,0 7,0 22 12 S 10
22.04.2019 08:00:00 11,0 7,0 24 13 S 10
22.04.2019 07:00:00 10,0 7,0 16 9 S 10
22.04.2019 06:00:00 11,0 7,0 24 13 S 10
22.04.2019 05:00:00 10,0 7,0 21 11 SSE 10
22.04.2019 04:00:00 11,0 7,0 16 9 S 10
22.04.2019 03:00:00 11,0 7,0 15 8 S 10
22.04.2019 02:00:00 13,0 8,0 16 9 S 10
22.04.2019 01:00:00 12,0 8,0 13 7 SSW 10
22.04.2019 00:00:00 12,0 8,0 11 6 SSW 10
21.04.2019 23:00:00 11,0 8,0 9 5 S 10
21.04.2019 22:00:00 12,0 9,0 8 4 S 10
21.04.2019 21:00:00 14,0 9,0 8 4 S 10
21.04.2019 20:00:00 11,0 9,0 5 3 SE 7
21.04.2019 19:00:00 15,0 10,0 11 6 S 10
21.04.2019 18:00:00 13,0 10,0 8 4 SSE 10
21.04.2019 17:00:00 13,0 10,0 9 5 SE 10
21.04.2019 16:00:00 13,0 10,0 9 5 SSE 10
21.04.2019 15:00:00 15,0 11,0 21 11 S 10
21.04.2019 14:00:00 14,0 11,0 16 9 S 10
21.04.2019 13:00:00 12,0 10,0 15 8 S 10
21.04.2019 12:00:00 10,0 9,0 16 9 S 10
21.04.2019 11:00:00 11,0 9,0 11 6 S 10
21.04.2019 10:00:00 11,0 10,0 9 5 SE 10
21.04.2019 09:00:00 10,0 10,0 2 1 - 10
21.04.2019 08:00:00 9,0 8,0 5 3 - 10
21.04.2019 07:00:00 8,0 8,0 0 0 N 8
21.04.2019 06:00:00 8,0 8,0 4 2 SSW 7
21.04.2019 05:00:00 8,0 8,0 8 4 S 8
21.04.2019 04:00:00 8,0 8,0 8 4 ESE 10
21.04.2019 03:00:00 8,0 8,0 11 6 E 10
21.04.2019 02:00:00 9,0 8,0 11 6 E 10
21.04.2019 01:00:00 9,0 8,0 16 9 E 10
21.04.2019 00:00:00 9,0 8,0 9 5 E 10
20.04.2019 23:00:00 9,0 9,0 2 1 - 10
20.04.2019 22:00:00 9,0 8,0 8 4 SSE 10
20.04.2019 21:00:00 9,0 8,0 8 4 S 10
20.04.2019 20:00:00 10,0 8,0 8 4 SSE 10
20.04.2019 19:00:00 10,0 8,0 13 7 SE 10
20.04.2019 18:00:00 10,0 9,0 15 8 SE 10
20.04.2019 17:00:00 11,0 8,0 16 9 E 10
20.04.2019 16:00:00 12,0 9,0 13 7 E 10
20.04.2019 15:00:00 14,0 9,0 13 7 N 10
20.04.2019 14:00:00 12,0 10,0 8 4 E 10
20.04.2019 13:00:00 13,0 10,0 8 4 E 10
20.04.2019 12:00:00 11,0 9,0 9 5 E 10
20.04.2019 11:00:00 12,0 9,0 13 7 E 10
20.04.2019 10:00:00 11,0 9,0 8 4 SE 10
20.04.2019 09:00:00 11,0 9,0 4 2 - 3,3
20.04.2019 08:00:00 10,0 8,0 4 2 - 10
20.04.2019 07:00:00 9,0 7,0 13 7 N 10
20.04.2019 06:00:00 12,0 6,0 13 7 SSW 10
20.04.2019 05:00:00 11,0 7,0 4 2 - 10
20.04.2019 04:00:00 11,0 7,0 9 5 S 10
20.04.2019 03:00:00 11,0 7,0 13 7 S 10
20.04.2019 02:00:00 12,0 7,0 13 7 S 10
20.04.2019 01:00:00 12,0 7,0 15 8 S 10
20.04.2019 00:00:00 12,0 7,0 16 9 S 10
19.04.2019 23:00:00 11,0 7,0 16 9 S 10
19.04.2019 22:00:00 12,0 7,0 16 9 S 10
19.04.2019 21:00:00 13,0 7,0 21 11 S 10
19.04.2019 20:00:00 - - - - - -
19.04.2019 19:00:00 13,0 7,0 21 11 S 10
19.04.2019 18:00:00 12,0 8,0 18 10 S 10
19.04.2019 17:00:00 13,0 8,0 21 11 S 10
19.04.2019 16:00:00 12,0 8,0 21 11 SSE 10
19.04.2019 15:00:00 12,0 8,0 24 13 SSE 10
19.04.2019 14:00:00 11,0 8,0 21 11 SSE 10
19.04.2019 13:00:00 11,0 8,0 16 9 SSE 10
19.04.2019 12:00:00 11,0 8,0 18 10 S 10
19.04.2019 11:00:00 10,0 8,0 18 10 SSE 10
19.04.2019 10:00:00 9,0 7,0 18 10 S 10
19.04.2019 09:00:00 9,0 7,0 22 12 S 10
19.04.2019 08:00:00 9,0 7,0 21 11 SSE 10
19.04.2019 07:00:00 8,0 6,0 24 13 SSE 10
19.04.2019 06:00:00 7,0 6,0 16 9 SSE 10
19.04.2019 05:00:00 7,0 6,0 18 10 SSE 10
19.04.2019 04:00:00 8,0 7,0 22 12 SSE 10
19.04.2019 03:00:00 8,0 6,0 26 14 SSE 10
19.04.2019 02:00:00 8,0 7,0 24 13 SSE 10
19.04.2019 01:00:00 8,0 7,0 29 16 SSE 10
19.04.2019 00:00:00 8,0 7,0 21 11 SSE 10
18.04.2019 23:00:00 8,0 7,0 18 10 SSE 10
18.04.2019 22:00:00 8,0 7,0 11 6 S 10
18.04.2019 21:00:00 8,0 7,0 16 9 SSE 10
18.04.2019 20:00:00 8,0 7,0 18 10 SSE 10
18.04.2019 19:00:00 9,0 7,0 29 16 SSE 10
18.04.2019 18:00:00 9,0 7,0 28 15 SSE 10
18.04.2019 17:00:00 9,0 7,0 22 12 SSE 10
18.04.2019 16:00:00 10,0 8,0 28 15 SSE 10
18.04.2019 15:00:00 10,0 8,0 24 13 SSE 9
18.04.2019 14:00:00 10,0 8,0 22 12 SE 9
18.04.2019 13:00:00 10,0 8,0 26 14 SSE 9
18.04.2019 12:00:00 10,0 8,0 26 14 SE 8
18.04.2019 11:00:00 9,0 7,0 24 13 SSE 7
18.04.2019 10:00:00 9,0 7,0 24 13 SSE 8
18.04.2019 09:00:00 8,0 7,0 18 10 SSE 7
18.04.2019 08:00:00 8,0 7,0 15 8 S 7

tt = temperature
td = dewpoint
ff = wind speed
dd = wind direction
vv = visibility

Next stations